sensor_id;sensor_type;location;lat;lon;timestamp;temperature;humidity
62259;DHT22;48241;48.824;10.102;2022-08-21T00:01:14;16.40;97.10
62259;DHT22;48241;48.824;10.102;2022-08-21T00:03:41;16.50;96.90
62259;DHT22;48241;48.824;10.102;2022-08-21T00:06:07;16.50;96.80
62259;DHT22;48241;48.824;10.102;2022-08-21T00:08:32;16.50;96.70
62259;DHT22;48241;48.824;10.102;2022-08-21T00:10:59;16.50;96.50
62259;DHT22;48241;48.824;10.102;2022-08-21T00:13:24;16.40;96.20
62259;DHT22;48241;48.824;10.102;2022-08-21T00:15:50;16.10;97.00
62259;DHT22;48241;48.824;10.102;2022-08-21T00:18:16;16.20;97.10
62259;DHT22;48241;48.824;10.102;2022-08-21T00:20:43;16.20;97.10
62259;DHT22;48241;48.824;10.102;2022-08-21T00:23:10;16.20;97.00
62259;DHT22;48241;48.824;10.102;2022-08-21T00:25:36;16.20;96.80
62259;DHT22;48241;48.824;10.102;2022-08-21T00:28:02;16.30;97.10
62259;DHT22;48241;48.824;10.102;2022-08-21T00:30:28;16.30;96.80
62259;DHT22;48241;48.824;10.102;2022-08-21T00:32:55;16.20;96.80
62259;DHT22;48241;48.824;10.102;2022-08-21T00:35:29;16.30;96.20
62259;DHT22;48241;48.824;10.102;2022-08-21T00:37:55;16.30;96.40
62259;DHT22;48241;48.824;10.102;2022-08-21T00:40:27;16.10;96.60
62259;DHT22;48241;48.824;10.102;2022-08-21T00:42:53;16.10;97.10
62259;DHT22;48241;48.824;10.102;2022-08-21T00:45:23;16.20;97.20
62259;DHT22;48241;48.824;10.102;2022-08-21T00:47:50;16.10;97.00
62259;DHT22;48241;48.824;10.102;2022-08-21T00:50:17;16.10;96.80
62259;DHT22;48241;48.824;10.102;2022-08-21T00:52:43;16.20;96.50
62259;DHT22;48241;48.824;10.102;2022-08-21T00:55:11;16.10;96.50
62259;DHT22;48241;48.824;10.102;2022-08-21T00:57:45;16.10;96.50
62259;DHT22;48241;48.824;10.102;2022-08-21T01:00:17;16.10;96.50
62259;DHT22;48241;48.824;10.102;2022-08-21T01:02:44;15.70;97.30
62259;DHT22;48241;48.824;10.102;2022-08-21T01:05:11;16.00;97.20
62259;DHT22;48241;48.824;10.102;2022-08-21T01:07:36;16.00;97.00
62259;DHT22;48241;48.824;10.102;2022-08-21T01:10:05;15.90;97.20
62259;DHT22;48241;48.824;10.102;2022-08-21T01:12:32;16.00;97.10
62259;DHT22;48241;48.824;10.102;2022-08-21T01:14:57;15.90;97.00
62259;DHT22;48241;48.824;10.102;2022-08-21T01:17:24;15.90;97.20
62259;DHT22;48241;48.824;10.102;2022-08-21T01:19:50;16.00;96.80
62259;DHT22;48241;48.824;10.102;2022-08-21T01:22:16;16.00;95.90
62259;DHT22;48241;48.824;10.102;2022-08-21T01:24:42;15.90;96.40
62259;DHT22;48241;48.824;10.102;2022-08-21T01:27:07;15.80;96.50
62259;DHT22;48241;48.824;10.102;2022-08-21T01:29:56;15.80;96.80
62259;DHT22;48241;48.824;10.102;2022-08-21T01:32:22;15.90;97.30
62259;DHT22;48241;48.824;10.102;2022-08-21T01:34:50;15.90;97.00
62259;DHT22;48241;48.824;10.102;2022-08-21T01:37:17;15.80;96.80
62259;DHT22;48241;48.824;10.102;2022-08-21T01:39:44;15.70;97.20
62259;DHT22;48241;48.824;10.102;2022-08-21T01:42:10;15.60;97.20
62259;DHT22;48241;48.824;10.102;2022-08-21T01:44:36;15.70;97.20
62259;DHT22;48241;48.824;10.102;2022-08-21T01:47:08;15.80;97.40
62259;DHT22;48241;48.824;10.102;2022-08-21T01:49:35;16.00;97.00
62259;DHT22;48241;48.824;10.102;2022-08-21T01:52:02;16.00;96.90
62259;DHT22;48241;48.824;10.102;2022-08-21T01:54:29;15.90;97.30
62259;DHT22;48241;48.824;10.102;2022-08-21T01:56:55;15.80;97.20
62259;DHT22;48241;48.824;10.102;2022-08-21T01:59:23;15.80;97.40
62259;DHT22;48241;48.824;10.102;2022-08-21T02:01:49;15.80;97.30
62259;DHT22;48241;48.824;10.102;2022-08-21T02:04:15;15.70;98.00
62259;DHT22;48241;48.824;10.102;2022-08-21T02:06:40;15.70;98.00
62259;DHT22;48241;48.824;10.102;2022-08-21T02:09:08;15.80;97.90
62259;DHT22;48241;48.824;10.102;2022-08-21T02:11:35;16.00;97.20
62259;DHT22;48241;48.824;10.102;2022-08-21T02:14:01;15.80;97.20
62259;DHT22;48241;48.824;10.102;2022-08-21T02:16:27;15.90;97.30
62259;DHT22;48241;48.824;10.102;2022-08-21T02:18:53;15.80;97.20
62259;DHT22;48241;48.824;10.102;2022-08-21T02:21:18;15.80;97.00
62259;DHT22;48241;48.824;10.102;2022-08-21T02:23:44;16.00;96.70
62259;DHT22;48241;48.824;10.102;2022-08-21T02:26:11;15.90;96.70
62259;DHT22;48241;48.824;10.102;2022-08-21T02:28:37;15.80;96.80
62259;DHT22;48241;48.824;10.102;2022-08-21T02:31:04;15.80;96.80
62259;DHT22;48241;48.824;10.102;2022-08-21T02:33:30;15.70;96.90
62259;DHT22;48241;48.824;10.102;2022-08-21T02:35:57;15.80;96.90
62259;DHT22;48241;48.824;10.102;2022-08-21T02:38:26;15.80;96.50
62259;DHT22;48241;48.824;10.102;2022-08-21T02:40:53;15.80;96.40
62259;DHT22;48241;48.824;10.102;2022-08-21T02:43:20;15.80;96.10
62259;DHT22;48241;48.824;10.102;2022-08-21T02:45:46;15.90;96.20
62259;DHT22;48241;48.824;10.102;2022-08-21T02:48:16;15.90;95.70
62259;DHT22;48241;48.824;10.102;2022-08-21T02:50:45;15.90;96.40
62259;DHT22;48241;48.824;10.102;2022-08-21T02:53:12;15.80;96.30
62259;DHT22;48241;48.824;10.102;2022-08-21T02:55:46;15.80;96.30
62259;DHT22;48241;48.824;10.102;2022-08-21T02:58:14;15.80;96.20
62259;DHT22;48241;48.824;10.102;2022-08-21T03:00:39;15.80;95.30
62259;DHT22;48241;48.824;10.102;2022-08-21T03:03:06;15.80;95.50
62259;DHT22;48241;48.824;10.102;2022-08-21T03:05:34;15.50;96.00
62259;DHT22;48241;48.824;10.102;2022-08-21T03:08:03;15.60;95.90
62259;DHT22;48241;48.824;10.102;2022-08-21T03:10:29;15.60;95.80
62259;DHT22;48241;48.824;10.102;2022-08-21T03:12:56;15.60;95.70
62259;DHT22;48241;48.824;10.102;2022-08-21T03:15:23;15.70;95.90
62259;DHT22;48241;48.824;10.102;2022-08-21T03:17:52;15.60;95.90
62259;DHT22;48241;48.824;10.102;2022-08-21T03:20:22;15.60;96.00
62259;DHT22;48241;48.824;10.102;2022-08-21T03:22:48;15.60;96.00
62259;DHT22;48241;48.824;10.102;2022-08-21T03:25:13;15.50;96.90
62259;DHT22;48241;48.824;10.102;2022-08-21T03:27:39;15.60;96.60
62259;DHT22;48241;48.824;10.102;2022-08-21T03:30:07;15.60;96.50
62259;DHT22;48241;48.824;10.102;2022-08-21T03:32:33;15.60;96.20
62259;DHT22;48241;48.824;10.102;2022-08-21T03:34:59;15.50;96.60
62259;DHT22;48241;48.824;10.102;2022-08-21T03:37:26;15.60;96.20
62259;DHT22;48241;48.824;10.102;2022-08-21T03:42:24;15.40;96.30
62259;DHT22;48241;48.824;10.102;2022-08-21T03:44:50;15.70;96.50
62259;DHT22;48241;48.824;10.102;2022-08-21T03:47:16;15.50;96.30
62259;DHT22;48241;48.824;10.102;2022-08-21T03:49:42;15.40;95.90
62259;DHT22;48241;48.824;10.102;2022-08-21T03:52:08;15.50;96.30
62259;DHT22;48241;48.824;10.102;2022-08-21T03:54:33;15.60;96.10
62259;DHT22;48241;48.824;10.102;2022-08-21T03:56:59;15.50;96.10
62259;DHT22;48241;48.824;10.102;2022-08-21T03:59:25;15.40;96.00
62259;DHT22;48241;48.824;10.102;2022-08-21T04:01:56;15.60;95.90
62259;DHT22;48241;48.824;10.102;2022-08-21T04:04:22;15.40;96.20
62259;DHT22;48241;48.824;10.102;2022-08-21T04:06:48;15.70;96.40
62259;DHT22;48241;48.824;10.102;2022-08-21T04:09:15;15.50;96.30
62259;DHT22;48241;48.824;10.102;2022-08-21T04:11:41;15.60;95.90
62259;DHT22;48241;48.824;10.102;2022-08-21T04:14:06;15.50;96.10
62259;DHT22;48241;48.824;10.102;2022-08-21T04:16:32;15.40;96.00
62259;DHT22;48241;48.824;10.102;2022-08-21T04:18:57;15.30;96.30
62259;DHT22;48241;48.824;10.102;2022-08-21T04:21:23;15.40;96.60
62259;DHT22;48241;48.824;10.102;2022-08-21T04:23:49;15.50;96.20
62259;DHT22;48241;48.824;10.102;2022-08-21T04:26:15;15.30;96.20
62259;DHT22;48241;48.824;10.102;2022-08-21T04:28:41;15.40;96.20
62259;DHT22;48241;48.824;10.102;2022-08-21T04:31:07;15.20;96.30
62259;DHT22;48241;48.824;10.102;2022-08-21T04:33:33;15.30;96.30
62259;DHT22;48241;48.824;10.102;2022-08-21T04:35:59;15.50;96.20
62259;DHT22;48241;48.824;10.102;2022-08-21T04:38:25;15.40;96.40
62259;DHT22;48241;48.824;10.102;2022-08-21T04:40:51;15.40;96.20
62259;DHT22;48241;48.824;10.102;2022-08-21T04:43:18;15.40;96.40
62259;DHT22;48241;48.824;10.102;2022-08-21T04:45:47;15.30;96.60
62259;DHT22;48241;48.824;10.102;2022-08-21T04:48:15;15.60;96.10
62259;DHT22;48241;48.824;10.102;2022-08-21T04:50:52;15.80;95.80
62259;DHT22;48241;48.824;10.102;2022-08-21T04:53:33;15.70;95.70
62259;DHT22;48241;48.824;10.102;2022-08-21T04:56:06;15.60;95.60
62259;DHT22;48241;48.824;10.102;2022-08-21T04:58:34;15.70;95.60
62259;DHT22;48241;48.824;10.102;2022-08-21T05:01:00;15.90;95.40
62259;DHT22;48241;48.824;10.102;2022-08-21T05:03:28;15.90;95.30
62259;DHT22;48241;48.824;10.102;2022-08-21T05:05:56;16.00;95.10
62259;DHT22;48241;48.824;10.102;2022-08-21T05:08:24;16.00;95.10
62259;DHT22;48241;48.824;10.102;2022-08-21T05:10:50;16.10;95.40
62259;DHT22;48241;48.824;10.102;2022-08-21T05:13:17;16.20;95.20
62259;DHT22;48241;48.824;10.102;2022-08-21T05:15:42;16.20;94.40
62259;DHT22;48241;48.824;10.102;2022-08-21T05:18:08;16.20;93.80
62259;DHT22;48241;48.824;10.102;2022-08-21T05:20:34;16.40;93.80
62259;DHT22;48241;48.824;10.102;2022-08-21T05:23:01;16.20;93.30
62259;DHT22;48241;48.824;10.102;2022-08-21T05:25:27;16.50;93.80
62259;DHT22;48241;48.824;10.102;2022-08-21T05:27:53;16.30;94.00
62259;DHT22;48241;48.824;10.102;2022-08-21T05:30:20;16.40;93.90
62259;DHT22;48241;48.824;10.102;2022-08-21T05:32:46;16.50;93.80
62259;DHT22;48241;48.824;10.102;2022-08-21T05:35:13;16.60;93.70
62259;DHT22;48241;48.824;10.102;2022-08-21T05:37:39;16.80;93.40
62259;DHT22;48241;48.824;10.102;2022-08-21T05:40:05;16.70;93.20
62259;DHT22;48241;48.824;10.102;2022-08-21T05:42:32;16.70;91.90
62259;DHT22;48241;48.824;10.102;2022-08-21T05:44:58;16.50;93.00
62259;DHT22;48241;48.824;10.102;2022-08-21T05:47:24;16.50;93.20
62259;DHT22;48241;48.824;10.102;2022-08-21T05:49:49;16.90;93.30
62259;DHT22;48241;48.824;10.102;2022-08-21T05:52:20;16.80;92.80
62259;DHT22;48241;48.824;10.102;2022-08-21T05:54:45;16.80;92.80
62259;DHT22;48241;48.824;10.102;2022-08-21T05:57:11;16.90;92.20
62259;DHT22;48241;48.824;10.102;2022-08-21T05:59:37;17.00;92.30
62259;DHT22;48241;48.824;10.102;2022-08-21T06:02:03;17.10;92.20
62259;DHT22;48241;48.824;10.102;2022-08-21T06:04:28;17.00;92.40
62259;DHT22;48241;48.824;10.102;2022-08-21T06:06:54;17.20;92.60
62259;DHT22;48241;48.824;10.102;2022-08-21T06:09:20;17.20;91.80
62259;DHT22;48241;48.824;10.102;2022-08-21T06:11:46;17.40;91.60
62259;DHT22;48241;48.824;10.102;2022-08-21T06:14:14;18.20;92.40
62259;DHT22;48241;48.824;10.102;2022-08-21T06:16:40;19.80;99.10
62259;DHT22;48241;48.824;10.102;2022-08-21T06:19:06;22.10;92.20
62259;DHT22;48241;48.824;10.102;2022-08-21T06:21:31;24.20;73.10
62259;DHT22;48241;48.824;10.102;2022-08-21T06:23:57;26.10;84.50
62259;DHT22;48241;48.824;10.102;2022-08-21T06:26:23;28.10;77.50
62259;DHT22;48241;48.824;10.102;2022-08-21T06:28:49;29.70;51.30
62259;DHT22;48241;48.824;10.102;2022-08-21T06:31:18;31.40;48.70
62259;DHT22;48241;48.824;10.102;2022-08-21T06:33:44;33.00;45.30
62259;DHT22;48241;48.824;10.102;2022-08-21T06:36:10;33.80;39.80
62259;DHT22;48241;48.824;10.102;2022-08-21T06:38:36;35.00;36.60
62259;DHT22;48241;48.824;10.102;2022-08-21T06:41:02;36.00;33.80
62259;DHT22;48241;48.824;10.102;2022-08-21T06:43:28;36.90;32.90
62259;DHT22;48241;48.824;10.102;2022-08-21T06:45:54;38.00;31.10
62259;DHT22;48241;48.824;10.102;2022-08-21T06:48:20;38.70;29.70
62259;DHT22;48241;48.824;10.102;2022-08-21T06:50:47;39.60;29.40
62259;DHT22;48241;48.824;10.102;2022-08-21T06:53:14;40.20;28.10
62259;DHT22;48241;48.824;10.102;2022-08-21T06:55:41;40.80;28.10
62259;DHT22;48241;48.824;10.102;2022-08-21T06:58:08;41.00;27.20
62259;DHT22;48241;48.824;10.102;2022-08-21T07:00:35;40.80;27.20
62259;DHT22;48241;48.824;10.102;2022-08-21T07:03:01;39.50;27.70
62259;DHT22;48241;48.824;10.102;2022-08-21T07:05:28;38.20;27.60
62259;DHT22;48241;48.824;10.102;2022-08-21T07:07:54;36.60;29.60
62259;DHT22;48241;48.824;10.102;2022-08-21T07:10:20;34.90;31.70
62259;DHT22;48241;48.824;10.102;2022-08-21T07:12:45;33.20;35.00
62259;DHT22;48241;48.824;10.102;2022-08-21T07:15:11;31.90;35.90
62259;DHT22;48241;48.824;10.102;2022-08-21T07:17:37;30.70;39.10
62259;DHT22;48241;48.824;10.102;2022-08-21T07:20:04;29.50;38.90
62259;DHT22;48241;48.824;10.102;2022-08-21T07:22:30;30.30;40.50
62259;DHT22;48241;48.824;10.102;2022-08-21T07:24:56;30.90;39.10
62259;DHT22;48241;48.824;10.102;2022-08-21T07:27:21;31.30;37.90
62259;DHT22;48241;48.824;10.102;2022-08-21T07:29:47;32.70;36.30
62259;DHT22;48241;48.824;10.102;2022-08-21T07:32:14;34.40;34.00
62259;DHT22;48241;48.824;10.102;2022-08-21T07:34:41;36.10;33.00
62259;DHT22;48241;48.824;10.102;2022-08-21T07:37:06;37.90;31.00
62259;DHT22;48241;48.824;10.102;2022-08-21T07:39:32;39.40;29.50
62259;DHT22;48241;48.824;10.102;2022-08-21T07:41:57;40.40;28.30
62259;DHT22;48241;48.824;10.102;2022-08-21T07:44:23;41.70;27.60
62259;DHT22;48241;48.824;10.102;2022-08-21T07:46:49;42.60;27.10
62259;DHT22;48241;48.824;10.102;2022-08-21T07:49:14;43.10;26.20
62259;DHT22;48241;48.824;10.102;2022-08-21T07:51:40;43.40;25.30
62259;DHT22;48241;48.824;10.102;2022-08-21T07:54:05;43.00;25.00
62259;DHT22;48241;48.824;10.102;2022-08-21T07:56:32;43.40;26.10
62259;DHT22;48241;48.824;10.102;2022-08-21T07:58:57;43.80;25.60
62259;DHT22;48241;48.824;10.102;2022-08-21T08:01:24;44.30;25.40
62259;DHT22;48241;48.824;10.102;2022-08-21T08:03:50;44.90;25.00
62259;DHT22;48241;48.824;10.102;2022-08-21T08:06:15;44.80;24.30
62259;DHT22;48241;48.824;10.102;2022-08-21T08:08:44;44.60;24.10
62259;DHT22;48241;48.824;10.102;2022-08-21T08:11:10;44.40;24.20
62259;DHT22;48241;48.824;10.102;2022-08-21T08:13:47;44.70;24.50
62259;DHT22;48241;48.824;10.102;2022-08-21T08:16:14;44.80;24.80
62259;DHT22;48241;48.824;10.102;2022-08-21T08:18:40;44.40;24.60
62259;DHT22;48241;48.824;10.102;2022-08-21T08:21:08;44.20;24.80
62259;DHT22;48241;48.824;10.102;2022-08-21T08:23:34;43.70;24.00
62259;DHT22;48241;48.824;10.102;2022-08-21T08:26:00;43.60;25.10
62259;DHT22;48241;48.824;10.102;2022-08-21T08:28:27;43.20;25.70
62259;DHT22;48241;48.824;10.102;2022-08-21T08:30:53;42.10;25.30
62259;DHT22;48241;48.824;10.102;2022-08-21T08:33:19;42.20;25.50
62259;DHT22;48241;48.824;10.102;2022-08-21T08:35:47;42.40;25.40
62259;DHT22;48241;48.824;10.102;2022-08-21T08:38:13;41.80;25.90
62259;DHT22;48241;48.824;10.102;2022-08-21T08:43:16;42.00;26.40
62259;DHT22;48241;48.824;10.102;2022-08-21T08:45:46;42.10;25.50
62259;DHT22;48241;48.824;10.102;2022-08-21T08:48:17;41.60;24.90
62259;DHT22;48241;48.824;10.102;2022-08-21T08:50:53;40.60;25.80
62259;DHT22;48241;48.824;10.102;2022-08-21T08:53:31;40.80;26.90
62259;DHT22;48241;48.824;10.102;2022-08-21T08:55:57;40.80;26.10
62259;DHT22;48241;48.824;10.102;2022-08-21T08:58:33;41.20;25.80
62259;DHT22;48241;48.824;10.102;2022-08-21T09:01:00;40.80;26.10
62259;DHT22;48241;48.824;10.102;2022-08-21T09:03:27;41.30;26.50
62259;DHT22;48241;48.824;10.102;2022-08-21T09:06:17;41.60;26.10
62259;DHT22;48241;48.824;10.102;2022-08-21T09:11:46;41.90;24.70
62259;DHT22;48241;48.824;10.102;2022-08-21T09:25:29;41.00;24.80
62259;DHT22;48241;48.824;10.102;2022-08-21T09:27:55;40.90;24.90
62259;DHT22;48241;48.824;10.102;2022-08-21T09:30:27;40.10;25.70
62259;DHT22;48241;48.824;10.102;2022-08-21T09:32:54;39.90;25.80
62259;DHT22;48241;48.824;10.102;2022-08-21T09:35:21;40.30;26.00
62259;DHT22;48241;48.824;10.102;2022-08-21T09:37:52;40.20;25.90
62259;DHT22;48241;48.824;10.102;2022-08-21T15:45:32;28.30;32.20
62259;DHT22;48241;48.824;10.102;2022-08-21T15:47:58;28.20;33.80
62259;DHT22;48241;48.824;10.102;2022-08-21T15:50:25;28.00;36.60
62259;DHT22;48241;48.824;10.102;2022-08-21T15:52:51;27.90;35.80
62259;DHT22;48241;48.824;10.102;2022-08-21T15:55:17;27.70;35.80
62259;DHT22;48241;48.824;10.102;2022-08-21T15:57:47;27.50;39.80
62259;DHT22;48241;48.824;10.102;2022-08-21T16:00:17;27.40;37.30
62259;DHT22;48241;48.824;10.102;2022-08-21T16:02:45;27.50;41.20
62259;DHT22;48241;48.824;10.102;2022-08-21T16:05:12;26.90;40.20
62259;DHT22;48241;48.824;10.102;2022-08-21T16:07:39;26.70;38.90
62259;DHT22;48241;48.824;10.102;2022-08-21T16:10:06;26.80;41.00
62259;DHT22;48241;48.824;10.102;2022-08-21T16:12:35;26.40;43.20
62259;DHT22;48241;48.824;10.102;2022-08-21T16:15:05;26.40;42.70
62259;DHT22;48241;48.824;10.102;2022-08-21T16:17:34;26.50;42.70
62259;DHT22;48241;48.824;10.102;2022-08-21T16:20:03;26.30;41.50
62259;DHT22;48241;48.824;10.102;2022-08-21T16:22:29;25.90;43.10
62259;DHT22;48241;48.824;10.102;2022-08-21T16:24:54;26.00;41.30
62259;DHT22;48241;48.824;10.102;2022-08-21T16:27:20;26.00;41.30
62259;DHT22;48241;48.824;10.102;2022-08-21T16:29:46;26.00;44.10
62259;DHT22;48241;48.824;10.102;2022-08-21T16:32:12;25.90;44.00
62259;DHT22;48241;48.824;10.102;2022-08-21T16:34:43;25.60;46.30
62259;DHT22;48241;48.824;10.102;2022-08-21T16:37:09;25.60;46.70
62259;DHT22;48241;48.824;10.102;2022-08-21T16:39:35;25.60;45.20
62259;DHT22;48241;48.824;10.102;2022-08-21T16:42:01;25.30;47.90
62259;DHT22;48241;48.824;10.102;2022-08-21T16:44:27;25.20;46.10
62259;DHT22;48241;48.824;10.102;2022-08-21T16:46:52;25.20;47.40
62259;DHT22;48241;48.824;10.102;2022-08-21T16:49:18;25.00;45.50
62259;DHT22;48241;48.824;10.102;2022-08-21T16:51:44;25.00;48.30
62259;DHT22;48241;48.824;10.102;2022-08-21T16:54:11;24.70;48.90
62259;DHT22;48241;48.824;10.102;2022-08-21T16:56:36;24.60;47.90
62259;DHT22;48241;48.824;10.102;2022-08-21T16:59:03;24.40;50.00
62259;DHT22;48241;48.824;10.102;2022-08-21T17:01:32;24.30;50.00
62259;DHT22;48241;48.824;10.102;2022-08-21T17:03:58;24.30;49.30
62259;DHT22;48241;48.824;10.102;2022-08-21T17:06:25;24.30;50.00
62259;DHT22;48241;48.824;10.102;2022-08-21T17:08:51;24.30;45.30
62259;DHT22;48241;48.824;10.102;2022-08-21T17:11:35;23.90;48.20
62259;DHT22;48241;48.824;10.102;2022-08-21T17:14:06;23.80;51.20
62259;DHT22;48241;48.824;10.102;2022-08-21T17:16:32;23.70;51.10
62259;DHT22;48241;48.824;10.102;2022-08-21T17:18:59;23.50;53.00
62259;DHT22;48241;48.824;10.102;2022-08-21T17:21:24;23.50;52.40
62259;DHT22;48241;48.824;10.102;2022-08-21T17:23:50;23.40;53.60
62259;DHT22;48241;48.824;10.102;2022-08-21T17:26:16;23.30;54.00
62259;DHT22;48241;48.824;10.102;2022-08-21T17:28:46;23.00;53.50
62259;DHT22;48241;48.824;10.102;2022-08-21T17:31:12;22.90;54.90
62259;DHT22;48241;48.824;10.102;2022-08-21T17:33:44;22.70;57.40
62259;DHT22;48241;48.824;10.102;2022-08-21T17:36:26;22.50;57.60
62259;DHT22;48241;48.824;10.102;2022-08-21T17:38:52;22.40;58.90
62259;DHT22;48241;48.824;10.102;2022-08-21T17:41:18;22.30;59.50
62259;DHT22;48241;48.824;10.102;2022-08-21T17:43:50;22.30;58.50
62259;DHT22;48241;48.824;10.102;2022-08-21T17:46:21;22.10;58.70
62259;DHT22;48241;48.824;10.102;2022-08-21T17:48:51;22.00;58.00
62259;DHT22;48241;48.824;10.102;2022-08-21T17:51:17;22.00;57.10
62259;DHT22;48241;48.824;10.102;2022-08-21T17:53:42;21.80;57.50
62259;DHT22;48241;48.824;10.102;2022-08-21T17:56:09;21.80;58.20
62259;DHT22;48241;48.824;10.102;2022-08-21T17:58:37;21.80;58.70
62259;DHT22;48241;48.824;10.102;2022-08-21T18:01:03;21.70;57.10
62259;DHT22;48241;48.824;10.102;2022-08-21T18:03:30;21.60;59.50
62259;DHT22;48241;48.824;10.102;2022-08-21T18:05:57;21.50;57.60
62259;DHT22;48241;48.824;10.102;2022-08-21T18:08:23;21.40;57.50
62259;DHT22;48241;48.824;10.102;2022-08-21T18:10:49;21.30;57.10
62259;DHT22;48241;48.824;10.102;2022-08-21T18:13:23;21.20;58.40
62259;DHT22;48241;48.824;10.102;2022-08-21T18:15:52;21.10;57.30
62259;DHT22;48241;48.824;10.102;2022-08-21T18:18:19;20.90;56.30
62259;DHT22;48241;48.824;10.102;2022-08-21T18:20:46;20.90;56.80
62259;DHT22;48241;48.824;10.102;2022-08-21T18:23:11;20.80;57.30
62259;DHT22;48241;48.824;10.102;2022-08-21T18:25:37;20.80;56.90
62259;DHT22;48241;48.824;10.102;2022-08-21T18:28:05;20.70;56.70
62259;DHT22;48241;48.824;10.102;2022-08-21T18:30:41;20.70;56.90
62259;DHT22;48241;48.824;10.102;2022-08-21T18:33:10;20.60;57.20
62259;DHT22;48241;48.824;10.102;2022-08-21T18:35:40;20.60;57.70
62259;DHT22;48241;48.824;10.102;2022-08-21T18:38:07;20.50;57.90
62259;DHT22;48241;48.824;10.102;2022-08-21T18:40:33;20.40;58.80
62259;DHT22;48241;48.824;10.102;2022-08-21T18:43:01;20.40;58.10
62259;DHT22;48241;48.824;10.102;2022-08-21T18:45:28;20.40;57.00
62259;DHT22;48241;48.824;10.102;2022-08-21T18:47:54;20.40;58.40
62259;DHT22;48241;48.824;10.102;2022-08-21T18:50:24;20.40;58.10
62259;DHT22;48241;48.824;10.102;2022-08-21T18:52:51;20.30;58.20
62259;DHT22;48241;48.824;10.102;2022-08-21T18:55:18;20.30;58.90
62259;DHT22;48241;48.824;10.102;2022-08-21T18:57:44;20.20;58.40
62259;DHT22;48241;48.824;10.102;2022-08-21T19:00:19;20.20;58.10
62259;DHT22;48241;48.824;10.102;2022-08-21T19:02:45;20.10;57.30
62259;DHT22;48241;48.824;10.102;2022-08-21T19:05:13;20.20;59.10
62259;DHT22;48241;48.824;10.102;2022-08-21T19:07:40;20.10;59.40
62259;DHT22;48241;48.824;10.102;2022-08-21T19:10:12;20.00;58.50
62259;DHT22;48241;48.824;10.102;2022-08-21T19:12:38;19.90;57.80
62259;DHT22;48241;48.824;10.102;2022-08-21T19:15:07;20.00;59.10
62259;DHT22;48241;48.824;10.102;2022-08-21T19:17:33;20.00;60.20
62259;DHT22;48241;48.824;10.102;2022-08-21T19:20:05;19.90;60.90
62259;DHT22;48241;48.824;10.102;2022-08-21T19:22:32;19.90;60.40
62259;DHT22;48241;48.824;10.102;2022-08-21T19:24:57;20.00;58.60
62259;DHT22;48241;48.824;10.102;2022-08-21T19:27:23;19.90;60.90
62259;DHT22;48241;48.824;10.102;2022-08-21T19:29:49;20.00;60.90
62259;DHT22;48241;48.824;10.102;2022-08-21T19:32:14;20.00;59.80
62259;DHT22;48241;48.824;10.102;2022-08-21T19:34:40;19.90;60.60
62259;DHT22;48241;48.824;10.102;2022-08-21T19:37:16;20.00;61.40
62259;DHT22;48241;48.824;10.102;2022-08-21T19:39:42;20.00;60.80
62259;DHT22;48241;48.824;10.102;2022-08-21T19:42:08;20.00;60.70
62259;DHT22;48241;48.824;10.102;2022-08-21T19:44:37;20.00;60.70
62259;DHT22;48241;48.824;10.102;2022-08-21T19:47:09;20.00;61.20
62259;DHT22;48241;48.824;10.102;2022-08-21T19:49:38;19.90;61.30
62259;DHT22;48241;48.824;10.102;2022-08-21T19:52:09;19.80;62.70
62259;DHT22;48241;48.824;10.102;2022-08-21T19:54:34;19.90;61.70
62259;DHT22;48241;48.824;10.102;2022-08-21T19:57:05;19.80;61.90
62259;DHT22;48241;48.824;10.102;2022-08-21T19:59:32;19.90;62.70
62259;DHT22;48241;48.824;10.102;2022-08-21T20:01:59;19.80;64.20
62259;DHT22;48241;48.824;10.102;2022-08-21T20:04:25;19.70;62.20
62259;DHT22;48241;48.824;10.102;2022-08-21T20:06:51;19.70;61.80
62259;DHT22;48241;48.824;10.102;2022-08-21T20:09:17;19.70;63.60
62259;DHT22;48241;48.824;10.102;2022-08-21T20:11:52;19.50;63.80
62259;DHT22;48241;48.824;10.102;2022-08-21T20:14:26;19.50;62.50
62259;DHT22;48241;48.824;10.102;2022-08-21T20:16:53;19.50;64.20
62259;DHT22;48241;48.824;10.102;2022-08-21T20:19:19;19.50;64.20
62259;DHT22;48241;48.824;10.102;2022-08-21T20:21:45;19.30;63.80
62259;DHT22;48241;48.824;10.102;2022-08-21T20:24:12;19.20;65.10
62259;DHT22;48241;48.824;10.102;2022-08-21T20:26:38;19.30;65.60
62259;DHT22;48241;48.824;10.102;2022-08-21T20:29:04;19.40;67.20
62259;DHT22;48241;48.824;10.102;2022-08-21T20:31:30;19.40;67.20
62259;DHT22;48241;48.824;10.102;2022-08-21T20:33:56;19.10;69.30
62259;DHT22;48241;48.824;10.102;2022-08-21T20:36:22;19.20;66.20
62259;DHT22;48241;48.824;10.102;2022-08-21T20:38:48;19.40;65.60
62259;DHT22;48241;48.824;10.102;2022-08-21T20:41:17;19.10;66.50
62259;DHT22;48241;48.824;10.102;2022-08-21T20:43:43;18.90;65.70
62259;DHT22;48241;48.824;10.102;2022-08-21T20:46:08;18.90;66.40
62259;DHT22;48241;48.824;10.102;2022-08-21T20:48:37;19.10;67.80
62259;DHT22;48241;48.824;10.102;2022-08-21T20:51:22;19.00;66.80
62259;DHT22;48241;48.824;10.102;2022-08-21T20:59:25;19.10;65.60
62259;DHT22;48241;48.824;10.102;2022-08-21T21:04:42;19.10;65.50
62259;DHT22;48241;48.824;10.102;2022-08-21T21:07:11;19.10;66.90
62259;DHT22;48241;48.824;10.102;2022-08-21T21:09:43;19.30;68.40
62259;DHT22;48241;48.824;10.102;2022-08-21T21:12:18;19.20;70.70
62259;DHT22;48241;48.824;10.102;2022-08-21T21:14:51;19.20;72.00
62259;DHT22;48241;48.824;10.102;2022-08-21T21:17:33;19.20;70.40
62259;DHT22;48241;48.824;10.102;2022-08-21T21:20:07;19.10;70.90
62259;DHT22;48241;48.824;10.102;2022-08-21T21:22:39;18.90;71.70
62259;DHT22;48241;48.824;10.102;2022-08-21T21:25:07;19.00;72.60
62259;DHT22;48241;48.824;10.102;2022-08-21T21:27:36;18.80;71.80
62259;DHT22;48241;48.824;10.102;2022-08-21T21:30:08;18.60;72.80
62259;DHT22;48241;48.824;10.102;2022-08-21T21:32:34;18.70;74.20
62259;DHT22;48241;48.824;10.102;2022-08-21T21:35:02;18.80;72.60
62259;DHT22;48241;48.824;10.102;2022-08-21T21:37:36;18.80;72.00
